Rachel Borchard — V2BW7 — position and weather

sailwx.info

Track history (hours):
 
Tides and Currents Weather Stations Pressure Air Temp Water Temp Dewpoint Dewpoint Depression Visibility Wind Speed Wind Dir Waves Ship Positions

Rachel Borchard

Last reported at 2017-Sep-19 09:43 UTC. Time now 2017-Sep-21 01:39 UTC.
Position N 32°20' E 034°37'.

Length 135 m; draft 7.7 m.

Type: Ship (hazmat cat A). MMSI: 304623000.

Date/timePositionNaut miles runAvg speedWind from/ knotsBaromVisibWave heightAir tempDewpointWater temp
2017-Sep-19 09:43N 32°20' E 034°37'314.9
2017-Sep-19 09:30N 32°23' E 034°37'714.9
2017-Sep-19 09:00N 32°30' E 034°40'814.8
2017-Sep-19 08:30N 32°38' E 034°42'714.8
2017-Sep-19 08:00N 32°45' E 034°45'142 6.2
2017-Sep-18 09:02N 34°38' E 033°03'112.9
2017-Sep-18 08:59N 34°39' E 033°03'2 3.7
2017-Sep-18 08:30N 34°39' E 033°01'0 0.0
2017-Sep-18 07:57N 34°39' E 033°01'0 0.0
2017-Sep-18 07:21N 34°39' E 033°01'0 0.0
2017-Sep-18 06:59N 34°39' E 033°01'0 0.0
2017-Sep-18 06:29N 34°39' E 033°01'0 0.0
2017-Sep-18 05:59N 34°39' E 033°01'0 0.0
2017-Sep-18 05:29N 34°39' E 033°01'0 0.0
2017-Sep-18 04:59N 34°39' E 033°01'0 0.0
2017-Sep-18 04:28N 34°39' E 033°01'0 0.0
2017-Sep-18 03:58N 34°39' E 033°01'0 0.1
2017-Sep-18 03:30N 34°39' E 033°01'2 4.3
2017-Sep-18 03:00N 34°39' E 033°04'52914.3
2017-Sep-16 14:07N 36°02' E 022°24'215.4
2017-Sep-16 14:00N 36°02' E 022°22'16915.8
2017-Sep-16 03:19N 36°58' E 019°03'616.9
2017-Sep-16 02:58N 36°60' E 018°56'2316.9
2017-Sep-16 01:38N 37°07' E 018°30'11916.8
2017-Sep-15 18:34N 37°46' E 016°08'716.9
2017-Sep-15 18:09N 37°48' E 016°00'316.8
2017-Sep-15 17:57N 37°49' E 015°56'716.3
2017-Sep-15 17:30N 37°51' E 015°47'815.9
2017-Sep-15 17:00N 37°55' E 015°39'816.4
2017-Sep-15 16:30N 38°02' E 015°33'816.2
2017-Sep-15 16:00N 38°10' E 015°35'714.0
2017-Sep-15 15:30N 38°16' E 015°40'714.1
2017-Sep-15 15:00N 38°22' E 015°36'917.6
2017-Sep-15 14:30N 38°28' E 015°28'917.3
2017-Sep-15 14:00N 38°34' E 015°20'917.3
2017-Sep-15 13:30N 38°41' E 015°12'9217.0
2017-Sep-15 08:05N 39°42' E 013°44'22516.9
2017-Sep-14 18:48N 42°12' E 010°01'5216.7
2017-Sep-14 15:40N 43°00' E 009°35'315.7
2017-Sep-14 15:30N 43°03' E 009°35'815.0
2017-Sep-14 14:58N 43°11' E 009°31'715.3
2017-Sep-14 14:30N 43°17' E 009°28'815.3
2017-Sep-14 14:01N 43°25' E 009°25'714.9
2017-Sep-14 13:30N 43°32' E 009°22'714.6
2017-Sep-14 13:00N 43°39' E 009°19'714.4
2017-Sep-14 12:30N 43°45' E 009°15'714.6
2017-Sep-14 12:00N 43°52' E 009°12'814.6
2017-Sep-14 11:28N 43°60' E 009°08'715.3
2017-Sep-14 11:00N 44°06' E 009°04'815.5
2017-Sep-14 10:30N 44°14' E 009°01'815.7
2017-Sep-14 10:00N 44°21' E 008°57'4 8.4
2017-Sep-14 09:30N 44°24' E 008°54'0 0.0
2017-Sep-14 08:59N 44°24' E 008°54'0 0.0
2017-Sep-14 08:29N 44°24' E 008°54'0 0.0
2017-Sep-14 07:58N 44°24' E 008°54'0 0.0
2017-Sep-14 07:22N 44°24' E 008°54'0 0.0
2017-Sep-14 06:58N 44°24' E 008°54'0 0.0
2017-Sep-14 06:30N 44°24' E 008°54'0 0.0
2017-Sep-14 06:01N 44°24' E 008°54'0 0.0
2017-Sep-14 05:30N 44°24' E 008°54'0 0.0
2017-Sep-14 05:01N 44°24' E 008°54'0 0.0
2017-Sep-14 04:31N 44°24' E 008°54'0 0.0
2017-Sep-14 04:00N 44°24' E 008°54'2 3.1
2017-Sep-14 03:31N 44°24' E 008°56'4 7.4
2017-Sep-14 03:00N 44°21' E 008°59'4 7.1
2017-Sep-14 02:30N 44°18' E 008°56'714.5
2017-Sep-14 02:00N 44°12' E 008°49'714.7
2017-Sep-14 01:30N 44°08' E 008°41'1614.7
2017-Sep-14 00:25N 43°56' E 008°25'5114.0
2017-Sep-13 20:45N 43°26' E 007°28'314.0
2017-Sep-13 20:30N 43°24' E 007°24'714.0
2017-Sep-13 20:00N 43°20' E 007°16'814.0
2017-Sep-13 19:24N 43°15' E 007°07'7012.8
2017-Sep-13 13:56N 43°02' E 005°33'717.5
2017-Sep-13 13:30N 43°05' E 005°24'816.7
2017-Sep-13 13:00N 43°09' E 005°14'713.5
2017-Sep-13 12:30N 43°15' E 005°09'10 0.7
2017-Sep-12 22:39N 43°21' E 005°20'2 4.8
2017-Sep-12 22:19N 43°21' E 005°18'510.5
2017-Sep-12 21:48N 43°17' E 005°12'611.7
2017-Sep-12 21:19N 43°12' E 005°11'412.3
2017-Sep-12 21:01N 43°09' E 005°07'1013.9
2017-Sep-12 20:19N 43°02' E 004°59'413.8
2017-Sep-12 20:01N 42°58' E 004°55'815.3
2017-Sep-12 19:30N 42°53' E 004°47'815.0
2017-Sep-12 19:00N 42°48' E 004°40'715.1
2017-Sep-12 18:31N 42°42' E 004°33'815.1
2017-Sep-12 17:59N 42°37' E 004°25'1215.0
2017-Sep-12 17:09N 42°28' E 004°14'314.7
2017-Sep-12 16:59N 42°26' E 004°11'123 6.3
2017-Sep-11 21:32N 41°07' E 002°04'114.5
2017-Sep-11 21:29N 41°06' E 002°04'714.6
2017-Sep-11 20:59N 41°00' E 001°60'714.4
2017-Sep-11 20:30N 40°54' E 001°55'714.4
2017-Sep-11 20:00N 40°47' E 001°51'714.7
2017-Sep-11 19:30N 40°41' E 001°47'714.5
2017-Sep-11 19:00N 40°34' E 001°43'714.4
2017-Sep-11 18:30N 40°28' E 001°39'713.5
2017-Sep-11 18:00N 40°22' E 001°35'714.4
2017-Sep-11 17:30N 40°15' E 001°30'713.4
2017-Sep-11 17:00N 40°09' E 001°26'612.1
2017-Sep-11 16:30N 40°04' E 001°22'612.3
2017-Sep-11 16:01N 39°59' E 001°19'612.5
2017-Sep-11 15:30N 39°53' E 001°15'712.1
2017-Sep-11 14:53N 39°46' E 001°11'410.5
2017-Sep-11 14:30N 39°43' E 001°08'11612.1
2017-Sep-11 04:56N 38°02' W 000°06'613.3
2017-Sep-11 04:30N 37°58' W 000°10'713.4
2017-Sep-11 03:59N 37°52' W 000°15'613.5
2017-Sep-11 03:30N 37°46' W 000°19'713.7
2017-Sep-11 03:00N 37°40' W 000°23'913.6
2017-Sep-11 02:21N 37°32' W 000°28'514.1
2017-Sep-11 01:58N 37°29' W 000°34'1013.8
2017-Sep-11 01:13N 37°22' W 000°43'314.1
2017-Sep-11 01:00N 37°20' W 000°47'714.1
2017-Sep-11 00:29N 37°16' W 000°54'22214.2
2017-Sep-10 08:51N 35°59' W 005°14'515.5
2017-Sep-10 08:31N 35°59' W 005°20'  
Track history (hours):
 
Tides and Currents Weather Stations Pressure Air Temp Water Temp Dewpoint Dewpoint Depression Visibility Wind Speed Wind Dir Waves Ship Positions

Rachel Borchard

Last reported at 2017-Sep-19 09:43 UTC. Time now 2017-Sep-21 01:39 UTC.
Position N 32°20' E 034°37'.

Length 135 m; draft 7.7 m.

Type: Ship (hazmat cat A). MMSI: 304623000.

Date/timePositionNaut miles runAvg speedWind from/ knotsBaromVisibWave heightAir tempDewpointWater temp
2017-Sep-19 09:43N 32°20' E 034°37'314.9
2017-Sep-19 09:30N 32°23' E 034°37'714.9
2017-Sep-19 09:00N 32°30' E 034°40'814.8
2017-Sep-19 08:30N 32°38' E 034°42'714.8
2017-Sep-19 08:00N 32°45' E 034°45'142 6.2
2017-Sep-18 09:02N 34°38' E 033°03'112.9
2017-Sep-18 08:59N 34°39' E 033°03'2 3.7
2017-Sep-18 08:30N 34°39' E 033°01'0 0.0
2017-Sep-18 07:57N 34°39' E 033°01'0 0.0
2017-Sep-18 07:21N 34°39' E 033°01'0 0.0
2017-Sep-18 06:59N 34°39' E 033°01'0 0.0
2017-Sep-18 06:29N 34°39' E 033°01'0 0.0
2017-Sep-18 05:59N 34°39' E 033°01'0 0.0
2017-Sep-18 05:29N 34°39' E 033°01'0 0.0
2017-Sep-18 04:59N 34°39' E 033°01'0 0.0
2017-Sep-18 04:28N 34°39' E 033°01'0 0.0
2017-Sep-18 03:58N 34°39' E 033°01'0 0.1
2017-Sep-18 03:30N 34°39' E 033°01'2 4.3
2017-Sep-18 03:00N 34°39' E 033°04'52914.3
2017-Sep-16 14:07N 36°02' E 022°24'215.4
2017-Sep-16 14:00N 36°02' E 022°22'16915.8
2017-Sep-16 03:19N 36°58' E 019°03'616.9
2017-Sep-16 02:58N 36°60' E 018°56'2316.9
2017-Sep-16 01:38N 37°07' E 018°30'11916.8
2017-Sep-15 18:34N 37°46' E 016°08'716.9
2017-Sep-15 18:09N 37°48' E 016°00'316.8
2017-Sep-15 17:57N 37°49' E 015°56'716.3
2017-Sep-15 17:30N 37°51' E 015°47'815.9
2017-Sep-15 17:00N 37°55' E 015°39'816.4
2017-Sep-15 16:30N 38°02' E 015°33'816.2
2017-Sep-15 16:00N 38°10' E 015°35'714.0
2017-Sep-15 15:30N 38°16' E 015°40'714.1
2017-Sep-15 15:00N 38°22' E 015°36'917.6
2017-Sep-15 14:30N 38°28' E 015°28'917.3
2017-Sep-15 14:00N 38°34' E 015°20'917.3
2017-Sep-15 13:30N 38°41' E 015°12'9217.0
2017-Sep-15 08:05N 39°42' E 013°44'22516.9
2017-Sep-14 18:48N 42°12' E 010°01'5216.7
2017-Sep-14 15:40N 43°00' E 009°35'315.7
2017-Sep-14 15:30N 43°03' E 009°35'815.0
2017-Sep-14 14:58N 43°11' E 009°31'715.3
2017-Sep-14 14:30N 43°17' E 009°28'815.3
2017-Sep-14 14:01N 43°25' E 009°25'714.9
2017-Sep-14 13:30N 43°32' E 009°22'714.6
2017-Sep-14 13:00N 43°39' E 009°19'714.4
2017-Sep-14 12:30N 43°45' E 009°15'714.6
2017-Sep-14 12:00N 43°52' E 009°12'814.6
2017-Sep-14 11:28N 43°60' E 009°08'715.3
2017-Sep-14 11:00N 44°06' E 009°04'815.5
2017-Sep-14 10:30N 44°14' E 009°01'815.7
2017-Sep-14 10:00N 44°21' E 008°57'4 8.4
2017-Sep-14 09:30N 44°24' E 008°54'0 0.0
2017-Sep-14 08:59N 44°24' E 008°54'0 0.0
2017-Sep-14 08:29N 44°24' E 008°54'0 0.0
2017-Sep-14 07:58N 44°24' E 008°54'0 0.0
2017-Sep-14 07:22N 44°24' E 008°54'0 0.0
2017-Sep-14 06:58N 44°24' E 008°54'0 0.0
2017-Sep-14 06:30N 44°24' E 008°54'0 0.0
2017-Sep-14 06:01N 44°24' E 008°54'0 0.0
2017-Sep-14 05:30N 44°24' E 008°54'0 0.0
2017-Sep-14 05:01N 44°24' E 008°54'0 0.0
2017-Sep-14 04:31N 44°24' E 008°54'0 0.0
2017-Sep-14 04:00N 44°24' E 008°54'2 3.1
2017-Sep-14 03:31N 44°24' E 008°56'4 7.4
2017-Sep-14 03:00N 44°21' E 008°59'4 7.1
2017-Sep-14 02:30N 44°18' E 008°56'714.5
2017-Sep-14 02:00N 44°12' E 008°49'714.7
2017-Sep-14 01:30N 44°08' E 008°41'1614.7
2017-Sep-14 00:25N 43°56' E 008°25'5114.0
2017-Sep-13 20:45N 43°26' E 007°28'314.0
2017-Sep-13 20:30N 43°24' E 007°24'714.0
2017-Sep-13 20:00N 43°20' E 007°16'814.0
2017-Sep-13 19:24N 43°15' E 007°07'7012.8
2017-Sep-13 13:56N 43°02' E 005°33'717.5
2017-Sep-13 13:30N 43°05' E 005°24'816.7
2017-Sep-13 13:00N 43°09' E 005°14'713.5
2017-Sep-13 12:30N 43°15' E 005°09'10 0.7
2017-Sep-12 22:39N 43°21' E 005°20'2 4.8
2017-Sep-12 22:19N 43°21' E 005°18'510.5
2017-Sep-12 21:48N 43°17' E 005°12'611.7
2017-Sep-12 21:19N 43°12' E 005°11'412.3
2017-Sep-12 21:01N 43°09' E 005°07'1013.9
2017-Sep-12 20:19N 43°02' E 004°59'413.8
2017-Sep-12 20:01N 42°58' E 004°55'815.3
2017-Sep-12 19:30N 42°53' E 004°47'815.0
2017-Sep-12 19:00N 42°48' E 004°40'715.1
2017-Sep-12 18:31N 42°42' E 004°33'815.1
2017-Sep-12 17:59N 42°37' E 004°25'1215.0
2017-Sep-12 17:09N 42°28' E 004°14'314.7
2017-Sep-12 16:59N 42°26' E 004°11'123 6.3
2017-Sep-11 21:32N 41°07' E 002°04'114.5
2017-Sep-11 21:29N 41°06' E 002°04'714.6
2017-Sep-11 20:59N 41°00' E 001°60'714.4
2017-Sep-11 20:30N 40°54' E 001°55'714.4
2017-Sep-11 20:00N 40°47' E 001°51'714.7
2017-Sep-11 19:30N 40°41' E 001°47'714.5
2017-Sep-11 19:00N 40°34' E 001°43'714.4
2017-Sep-11 18:30N 40°28' E 001°39'713.5
2017-Sep-11 18:00N 40°22' E 001°35'714.4
2017-Sep-11 17:30N 40°15' E 001°30'713.4
2017-Sep-11 17:00N 40°09' E 001°26'612.1
2017-Sep-11 16:30N 40°04' E 001°22'612.3
2017-Sep-11 16:01N 39°59' E 001°19'612.5
2017-Sep-11 15:30N 39°53' E 001°15'712.1
2017-Sep-11 14:53N 39°46' E 001°11'410.5
2017-Sep-11 14:30N 39°43' E 001°08'11612.1
2017-Sep-11 04:56N 38°02' W 000°06'613.3
2017-Sep-11 04:30N 37°58' W 000°10'713.4
2017-Sep-11 03:59N 37°52' W 000°15'613.5
2017-Sep-11 03:30N 37°46' W 000°19'713.7
2017-Sep-11 03:00N 37°40' W 000°23'913.6
2017-Sep-11 02:21N 37°32' W 000°28'514.1
2017-Sep-11 01:58N 37°29' W 000°34'1013.8
2017-Sep-11 01:13N 37°22' W 000°43'314.1
2017-Sep-11 01:00N 37°20' W 000°47'714.1
2017-Sep-11 00:29N 37°16' W 000°54'22214.2
2017-Sep-10 08:51N 35°59' W 005°14'515.5
2017-Sep-10 08:31N 35°59' W 005°20'  

Dump ship's entire track history